createdAt,value
2019-03-12T00:01:30.228Z,1.60
2019-03-12T00:04:14.932Z,1.80
2019-03-12T00:07:00.011Z,1.80
2019-03-12T00:09:44.659Z,1.93
2019-03-12T00:12:28.853Z,2.00
2019-03-12T00:15:22.528Z,1.83
2019-03-12T00:18:06.832Z,1.80
2019-03-12T00:20:51.832Z,1.93
2019-03-12T00:23:36.299Z,2.10
2019-03-12T00:26:30.688Z,1.93
2019-03-12T00:29:15.540Z,1.97
2019-03-12T00:31:59.837Z,2.30
2019-03-12T00:34:52.888Z,2.27
2019-03-12T00:37:37.682Z,1.90
2019-03-12T00:40:22.485Z,2.00
2019-03-12T00:43:07.648Z,1.73
2019-03-12T00:45:52.488Z,1.83
2019-03-12T00:48:37.535Z,1.83
2019-03-12T00:51:31.466Z,2.03
2019-03-12T00:54:16.035Z,1.80
2019-03-12T00:57:00.547Z,1.77
2019-03-12T00:59:45.361Z,1.70
2019-03-12T01:02:29.856Z,1.90
2019-03-12T01:05:14.801Z,2.00
2019-03-12T01:07:59.696Z,2.03
2019-03-12T01:10:44.401Z,1.93
2019-03-12T01:13:28.992Z,1.93
2019-03-12T01:16:14.189Z,1.93
2019-03-12T01:18:58.929Z,1.80
2019-03-12T01:21:43.608Z,1.90
2019-03-12T01:24:28.436Z,2.00
2019-03-12T01:27:14.125Z,1.90
2019-03-12T01:30:10.881Z,2.03
2019-03-12T01:32:55.224Z,2.10
2019-03-12T01:35:40.112Z,1.80
2019-03-12T01:38:25.004Z,1.77
2019-03-12T01:41:09.872Z,1.90
2019-03-12T01:43:55.235Z,2.00
2019-03-12T01:46:48.748Z,2.03
2019-03-12T01:49:33.296Z,2.33
2019-03-12T01:52:18.473Z,2.03
2019-03-12T01:55:02.952Z,2.00
2019-03-12T01:57:47.544Z,2.67
2019-03-12T02:00:32.924Z,1.97
2019-03-12T02:03:17.706Z,2.00
2019-03-12T02:06:03.024Z,2.27
2019-03-12T02:08:56.488Z,2.30
2019-03-12T02:11:41.059Z,2.00
2019-03-12T02:14:26.350Z,2.10
2019-03-12T02:17:11.913Z,2.20
2019-03-12T02:19:57.032Z,1.83
2019-03-12T02:22:42.395Z,2.13
2019-03-12T02:25:27.532Z,1.77
2019-03-12T02:28:12.811Z,1.80
2019-03-12T02:30:57.484Z,2.10
2019-03-12T02:33:50.953Z,2.23
2019-03-12T02:36:35.516Z,1.70
2019-03-12T02:39:20.520Z,1.87
2019-03-12T02:42:05.037Z,2.10
2019-03-12T02:44:50.077Z,1.63
2019-03-12T02:47:34.329Z,2.00
2019-03-12T02:50:19.396Z,1.83
2019-03-12T02:53:04.785Z,2.43
2019-03-12T02:56:01.801Z,2.10
2019-03-12T02:58:45.680Z,2.10
2019-03-12T03:01:39.013Z,1.77
2019-03-12T03:04:23.826Z,2.00
2019-03-12T03:07:14.926Z,2.00
2019-03-12T03:09:59.688Z,2.40
2019-03-12T03:12:44.614Z,1.90
2019-03-12T03:15:31.121Z,2.00
2019-03-12T03:18:15.780Z,2.20
2019-03-12T03:21:00.224Z,1.80
2019-03-12T03:23:45.149Z,1.90
2019-03-12T03:26:30.188Z,1.97
2019-03-12T03:29:14.924Z,2.30
2019-03-12T03:32:09.148Z,2.37
2019-03-12T03:34:54.276Z,2.50
2019-03-12T03:37:48.384Z,2.20
2019-03-12T03:40:33.117Z,2.20
2019-03-12T03:43:17.593Z,2.13
2019-03-12T03:46:02.816Z,2.33
2019-03-12T03:48:47.367Z,1.83
2019-03-12T03:51:31.608Z,1.73
2019-03-12T03:54:16.676Z,2.10
2019-03-12T03:57:01.172Z,1.80
2019-03-12T03:59:46.002Z,2.80
2019-03-12T04:02:30.912Z,2.13
2019-03-12T04:05:15.660Z,1.80
2019-03-12T04:08:00.874Z,2.20
2019-03-12T04:10:45.996Z,1.87
2019-03-12T04:13:30.789Z,2.00
2019-03-12T04:16:16.284Z,1.90
2019-03-12T04:19:00.956Z,1.90
2019-03-12T04:21:54.609Z,2.40
2019-03-12T04:24:39.725Z,2.30
2019-03-12T04:27:33.468Z,1.90
2019-03-12T04:30:17.965Z,2.00
2019-03-12T04:33:02.725Z,2.20
2019-03-12T04:35:48.105Z,2.20
2019-03-12T04:38:42.770Z,2.10
2019-03-12T04:41:36.820Z,2.33
2019-03-12T04:44:30.791Z,2.07
2019-03-12T04:47:15.888Z,2.53
2019-03-12T04:50:09.438Z,2.10
2019-03-12T04:52:54.296Z,2.70
2019-03-12T04:55:38.915Z,2.60
2019-03-12T04:58:23.578Z,2.10
2019-03-12T05:01:08.776Z,2.10
2019-03-12T05:03:53.812Z,2.80
2019-03-12T05:06:48.116Z,2.17
2019-03-12T05:09:43.650Z,2.20
2019-03-12T05:12:30.697Z,1.73
2019-03-12T05:15:14.564Z,1.97
2019-03-12T05:17:59.237Z,2.00
2019-03-12T05:20:44.388Z,2.00
2019-03-12T05:23:29.457Z,2.33
2019-03-12T05:26:13.931Z,2.67
2019-03-12T05:28:59.358Z,2.33
2019-03-12T05:31:53.164Z,2.40
2019-03-12T05:34:37.642Z,2.23
2019-03-12T05:37:22.992Z,2.60
2019-03-12T05:40:08.555Z,2.33
2019-03-12T05:42:53.276Z,2.63
2019-03-12T05:45:38.563Z,2.23
2019-03-12T05:48:22.915Z,1.93
2019-03-12T05:51:07.495Z,2.40
2019-03-12T05:54:00.925Z,2.10
2019-03-12T05:56:45.414Z,2.20
2019-03-12T05:59:30.337Z,2.00
2019-03-12T06:02:15.048Z,2.43
2019-03-12T06:04:59.912Z,2.00
2019-03-12T06:07:44.451Z,2.10
2019-03-12T06:10:28.951Z,2.63
2019-03-12T06:13:13.452Z,2.13
2019-03-12T06:16:07.341Z,1.83
2019-03-12T06:19:00.760Z,1.80
2019-03-12T06:21:45.746Z,1.90
2019-03-12T06:24:30.730Z,2.17
2019-03-12T06:27:18.125Z,2.37
2019-03-12T06:30:02.355Z,2.00
2019-03-12T06:33:01.087Z,1.87
2019-03-12T06:39:57.972Z,2.00
2019-03-12T06:43:01.548Z,1.90
2019-03-12T06:46:27.973Z,2.27
2019-03-12T06:49:17.402Z,1.97
2019-03-12T06:56:01.480Z,2.20
2019-03-12T07:02:04.946Z,1.50
2019-03-12T07:08:13.428Z,1.57
2019-03-12T07:11:16.988Z,1.60
2019-03-12T07:14:26.884Z,1.90
2019-03-12T07:17:46.558Z,1.80
2019-03-12T07:21:10.668Z,1.90
2019-03-12T07:24:31.338Z,1.90
2019-03-12T07:27:26.976Z,1.70
2019-03-12T07:30:30.401Z,2.20
2019-03-12T07:40:11.152Z,1.70
2019-03-12T07:43:02.324Z,1.67
2019-03-12T07:45:52.331Z,1.63
2019-03-12T07:48:56.632Z,1.53
2019-03-12T07:52:20.045Z,1.87
2019-03-12T07:55:23.521Z,1.80
2019-03-12T07:58:17.979Z,2.00
2019-03-12T08:05:08.588Z,1.60
2019-03-12T08:08:22.924Z,2.00
2019-03-12T08:11:26.509Z,1.60
2019-03-12T08:14:30.116Z,1.97
2019-03-12T08:17:50.140Z,1.50
2019-03-12T08:24:14.733Z,1.73
2019-03-12T08:27:38.115Z,1.47
2019-03-12T08:37:19.152Z,2.37
2019-03-12T08:43:34.779Z,1.30
2019-03-12T08:50:35.739Z,1.73
2019-03-12T08:53:52.072Z,1.60
2019-03-12T08:56:59.065Z,1.50
2019-03-12T09:00:07.045Z,1.67
2019-03-12T09:03:30.058Z,1.37
2019-03-12T09:06:33.581Z,1.50
2019-03-12T09:09:37.493Z,1.50
2019-03-12T09:12:59.732Z,1.40
2019-03-12T09:19:43.036Z,1.60
2019-03-12T09:22:50.089Z,1.43
2019-03-12T09:29:02.318Z,1.50
2019-03-12T09:35:18.578Z,1.40
2019-03-12T09:38:28.136Z,1.50
2019-03-12T09:41:51.508Z,1.60
2019-03-12T09:44:49.195Z,1.27
2019-03-12T09:51:27.519Z,1.40
2019-03-12T09:54:31.197Z,1.73
2019-03-12T09:57:34.936Z,1.47
2019-03-12T10:00:55.813Z,1.57
2019-03-12T10:03:59.609Z,1.50
2019-03-12T10:07:03.380Z,1.37
2019-03-12T10:10:04.826Z,1.77
2019-03-12T10:13:16.679Z,1.77
2019-03-12T10:16:38.860Z,1.40
2019-03-12T10:19:29.887Z,1.50
2019-03-12T10:22:25.496Z,1.50
2019-03-12T10:25:29.102Z,1.60
2019-03-12T10:28:47.795Z,1.17
2019-03-12T10:32:05.337Z,1.50
2019-03-12T10:35:34.096Z,1.50
2019-03-12T10:38:55.102Z,1.23
2019-03-12T10:44:48.896Z,1.50
2019-03-12T10:47:34.796Z,1.33
2019-03-12T10:50:19.550Z,1.50
2019-03-12T10:53:04.671Z,1.50
2019-03-12T10:55:49.561Z,1.43
2019-03-12T10:58:36.036Z,1.37
2019-03-12T11:01:20.504Z,1.40
2019-03-12T11:04:05.661Z,1.07
2019-03-12T11:06:50.240Z,1.33
2019-03-12T11:09:35.416Z,1.03
2019-03-12T11:12:29.425Z,1.10
2019-03-12T11:15:14.501Z,1.10
2019-03-12T11:18:08.001Z,1.30
2019-03-12T11:20:52.686Z,1.30
2019-03-12T11:23:37.209Z,1.30
2019-03-12T11:26:21.780Z,1.30
2019-03-12T11:29:06.759Z,1.20
2019-03-12T11:31:51.371Z,1.40
2019-03-12T11:34:38.461Z,1.40
2019-03-12T11:37:31.869Z,1.37
2019-03-12T11:40:25.726Z,1.10
2019-03-12T11:43:12.137Z,1.37
2019-03-12T11:46:06.008Z,1.20
2019-03-12T11:48:50.676Z,0.93
2019-03-12T11:51:36.373Z,1.07
2019-03-12T11:54:21.215Z,1.27
2019-03-12T11:57:06.036Z,1.23
2019-03-12T12:00:01.371Z,1.20
2019-03-12T12:02:59.394Z,1.20
2019-03-12T12:05:33.908Z,1.10
2019-03-12T12:08:27.621Z,1.40
2019-03-12T12:11:12.220Z,1.20
2019-03-12T12:13:57.224Z,1.10
2019-03-12T12:16:42.428Z,1.00
2019-03-12T12:19:36.240Z,0.90
2019-03-12T12:22:20.593Z,1.10
2019-03-12T12:25:05.482Z,0.90
2019-03-12T12:27:50.001Z,1.00
2019-03-12T12:30:35.244Z,1.60
2019-03-12T12:33:19.789Z,1.40
2019-03-12T12:36:04.568Z,1.27
2019-03-12T12:38:48.924Z,0.77
2019-03-12T12:41:45.471Z,1.27
2019-03-12T12:44:29.773Z,1.00
2019-03-12T12:47:16.121Z,1.07
2019-03-12T12:50:00.580Z,1.00
2019-03-12T12:52:45.607Z,1.00
2019-03-12T12:55:30.196Z,0.87
2019-03-12T12:58:14.483Z,1.00
2019-03-12T13:01:09.052Z,1.00
2019-03-12T13:03:54.048Z,0.90
2019-03-12T13:06:39.124Z,0.90
2019-03-12T13:09:23.738Z,0.90
2019-03-12T13:12:09.056Z,1.20
2019-03-12T13:14:54.044Z,1.00
2019-03-12T13:17:39.002Z,1.00
2019-03-12T13:20:33.156Z,1.10
2019-03-12T13:23:27.508Z,0.70
2019-03-12T13:26:20.899Z,0.63
2019-03-12T13:29:05.980Z,0.97
2019-03-12T13:31:50.656Z,0.80
2019-03-12T13:34:35.936Z,0.83
2019-03-12T13:37:29.681Z,1.20
2019-03-12T13:40:14.572Z,1.10
2019-03-12T13:42:59.446Z,1.00
2019-03-12T13:45:53.548Z,0.90
2019-03-12T13:48:38.400Z,1.07
2019-03-12T13:51:22.880Z,1.17
2019-03-12T13:54:09.801Z,1.13
2019-03-12T13:56:54.505Z,1.20
2019-03-12T13:59:48.473Z,1.20
2019-03-12T14:02:33.284Z,1.17
2019-03-12T14:05:18.173Z,1.30
2019-03-12T14:08:02.680Z,1.37
2019-03-12T14:10:45.879Z,1.30
2019-03-12T14:17:08.314Z,1.40
2019-03-12T14:20:00.958Z,1.53
2019-03-12T14:22:45.883Z,1.33
2019-03-12T14:25:31.008Z,1.63
2019-03-12T14:28:24.785Z,1.30
2019-03-12T14:31:09.512Z,1.50
2019-03-12T14:33:54.272Z,1.53
2019-03-12T14:36:48.650Z,1.30
2019-03-12T14:39:42.795Z,1.10
2019-03-12T14:42:36.887Z,1.60
2019-03-12T14:45:21.735Z,1.47
2019-03-12T14:48:15.881Z,1.70
2019-03-12T14:51:15.850Z,2.07
2019-03-12T14:54:00.484Z,1.67
2019-03-12T14:56:45.308Z,1.80
2019-03-12T14:59:30.535Z,1.30
2019-03-12T15:02:14.984Z,1.60
2019-03-12T15:04:59.987Z,1.73
2019-03-12T15:07:44.708Z,1.50
2019-03-12T15:10:29.663Z,1.67
2019-03-12T15:13:13.984Z,1.97
2019-03-12T15:15:58.784Z,1.80
2019-03-12T15:18:43.804Z,1.77
2019-03-12T15:21:29.073Z,1.80
2019-03-12T15:24:23.011Z,2.10
2019-03-12T15:27:07.691Z,1.67
2019-03-12T15:29:52.608Z,1.53
2019-03-12T15:32:37.461Z,1.47
2019-03-12T15:35:22.513Z,1.40
2019-03-12T15:38:16.684Z,1.40
2019-03-12T15:41:10.290Z,1.37
2019-03-12T15:43:55.040Z,1.33
2019-03-12T15:46:39.750Z,1.53
2019-03-12T15:49:24.879Z,1.47
2019-03-12T15:52:10.286Z,1.33
2019-03-12T15:55:04.017Z,1.80
2019-03-12T15:57:58.116Z,1.63
2019-03-12T16:00:53.952Z,1.27
2019-03-12T16:03:47.774Z,1.30
2019-03-12T16:06:32.332Z,1.50
2019-03-12T16:09:17.449Z,1.20
2019-03-12T16:12:02.441Z,1.20
2019-03-12T16:14:55.968Z,1.40
2019-03-12T16:17:41.258Z,1.40
2019-03-12T16:20:34.964Z,1.83
2019-03-12T16:23:19.668Z,1.43
2019-03-12T16:26:04.521Z,1.60
2019-03-12T16:28:49.671Z,1.40
2019-03-12T16:31:35.299Z,1.50
2019-03-12T16:34:20.429Z,1.40
2019-03-12T16:37:05.018Z,1.80
2019-03-12T16:39:49.860Z,1.40
2019-03-12T16:42:35.451Z,1.20
2019-03-12T16:45:28.920Z,1.50
2019-03-12T16:48:13.604Z,1.37
2019-03-12T16:50:58.591Z,1.10
2019-03-12T16:53:42.976Z,1.33
2019-03-12T16:56:28.146Z,1.37
2019-03-12T16:59:12.425Z,1.47
2019-03-12T17:02:05.943Z,1.50
2019-03-12T17:04:50.592Z,1.43
2019-03-12T17:07:35.038Z,1.60
2019-03-12T17:10:20.129Z,1.50
2019-03-12T17:13:05.253Z,1.60
2019-03-12T17:15:54.614Z,1.40
2019-03-12T17:18:38.287Z,1.57
2019-03-12T17:21:33.003Z,1.40
2019-03-12T17:24:17.696Z,1.60
2019-03-12T17:27:11.220Z,2.10
2019-03-12T17:29:55.965Z,1.80
2019-03-12T17:32:41.137Z,1.67
2019-03-12T17:35:34.970Z,1.80
2019-03-12T17:38:20.240Z,1.93
2019-03-12T17:41:13.705Z,2.10
2019-03-12T17:43:58.704Z,1.97
2019-03-12T17:46:43.386Z,2.30
2019-03-12T17:49:28.552Z,2.43
2019-03-12T17:52:22.420Z,1.57
2019-03-12T17:55:07.389Z,1.50
2019-03-12T17:57:52.280Z,1.37
2019-03-12T18:00:46.789Z,1.77
2019-03-12T18:03:40.704Z,1.67
2019-03-12T18:06:35.208Z,1.63
2019-03-12T18:09:19.949Z,2.03
2019-03-12T18:12:04.568Z,2.00
2019-03-12T18:14:57.884Z,2.50
2019-03-12T18:17:42.568Z,1.90
2019-03-12T18:20:27.628Z,1.83
2019-03-12T18:23:12.632Z,1.97
2019-03-12T18:25:57.806Z,2.30
2019-03-12T18:28:51.341Z,3.10
2019-03-12T18:31:36.200Z,2.10
2019-03-12T18:34:21.072Z,1.90
2019-03-12T18:37:06.224Z,2.20
2019-03-12T18:39:59.672Z,2.00
2019-03-12T18:42:44.497Z,1.83
2019-03-12T18:45:29.203Z,1.77
2019-03-12T18:48:14.464Z,1.60
2019-03-12T18:50:58.835Z,1.80
2019-03-12T18:53:43.972Z,1.43
2019-03-12T18:56:28.860Z,1.50
2019-03-12T18:59:13.336Z,1.70
2019-03-12T19:01:57.952Z,1.90
2019-03-12T19:04:42.387Z,1.57
2019-03-12T19:07:35.672Z,1.37
2019-03-12T19:10:20.838Z,1.60
2019-03-12T19:13:14.524Z,1.77
2019-03-12T19:15:59.353Z,1.60
2019-03-12T19:18:43.927Z,1.57
2019-03-12T19:21:28.396Z,1.57
2019-03-12T19:24:13.132Z,1.30
2019-03-12T19:26:59.613Z,1.40
2019-03-12T19:29:44.372Z,1.40
2019-03-12T19:36:09.527Z,1.40
2019-03-12T19:39:03.896Z,1.60
2019-03-12T19:41:59.841Z,1.57
2019-03-12T19:44:53.746Z,1.90
2019-03-12T19:47:39.880Z,1.60
2019-03-12T19:50:24.460Z,1.40
2019-03-12T19:53:09.725Z,1.37
2019-03-12T19:55:54.420Z,1.20
2019-03-12T19:58:39.127Z,1.50
2019-03-12T20:01:23.904Z,1.43
2019-03-12T20:04:08.544Z,1.30
2019-03-12T20:06:53.624Z,1.43
2019-03-12T20:09:38.559Z,1.50
2019-03-12T20:12:23.107Z,1.50
2019-03-12T20:15:07.765Z,1.43
2019-03-12T20:17:52.640Z,1.50
2019-03-12T20:20:38.820Z,1.43
2019-03-12T20:23:24.044Z,1.50
2019-03-12T20:26:09.360Z,1.90
2019-03-12T20:29:02.755Z,1.60
2019-03-12T20:31:49.231Z,1.30
2019-03-12T20:34:33.971Z,1.47
2019-03-12T20:37:18.642Z,1.40
2019-03-12T20:40:03.888Z,1.40
2019-03-12T20:42:50.958Z,1.53
2019-03-12T20:45:36.836Z,1.30
2019-03-12T20:48:21.259Z,1.30
2019-03-12T20:51:06.459Z,1.30
2019-03-12T20:57:19.812Z,1.40
2019-03-12T21:00:13.290Z,1.60
2019-03-12T21:02:59.978Z,1.20
2019-03-12T21:05:53.708Z,1.30
2019-03-12T21:08:38.728Z,1.27
2019-03-12T21:11:23.531Z,1.50
2019-03-12T21:14:08.852Z,1.37
2019-03-12T21:17:02.444Z,1.33
2019-03-12T21:19:47.360Z,1.53
2019-03-12T21:22:41.156Z,1.60
2019-03-12T21:25:25.897Z,1.33
2019-03-12T21:28:10.472Z,1.37
2019-03-12T21:30:55.328Z,1.30
2019-03-12T21:33:40.764Z,1.60
2019-03-12T21:36:34.818Z,1.27
2019-03-12T21:39:28.789Z,1.57
2019-03-12T21:42:13.541Z,1.10
2019-03-12T21:44:58.778Z,1.43
2019-03-12T21:47:52.422Z,1.20
2019-03-12T21:50:37.567Z,1.60
2019-03-12T21:53:31.657Z,1.20
2019-03-12T21:56:25.668Z,1.30
2019-03-12T21:59:10.092Z,1.10
2019-03-12T22:01:54.864Z,1.30
2019-03-12T22:04:39.814Z,1.20
2019-03-12T22:07:24.624Z,1.30
2019-03-12T22:10:09.283Z,1.43
2019-03-12T22:12:54.079Z,1.07
2019-03-12T22:15:38.868Z,1.10
2019-03-12T22:18:24.224Z,1.10
2019-03-12T22:21:08.799Z,1.00
2019-03-12T22:23:53.864Z,1.20
2019-03-12T22:26:48.649Z,1.30
2019-03-12T22:29:33.816Z,1.20
2019-03-12T22:32:18.981Z,1.20
2019-03-12T22:35:13.092Z,1.20
2019-03-12T22:38:06.449Z,1.20
2019-03-12T22:40:51.609Z,1.20
2019-03-12T22:43:36.680Z,0.90
2019-03-12T22:46:21.495Z,1.23
2019-03-12T22:49:15.357Z,1.40
2019-03-12T22:52:00.100Z,1.20
2019-03-12T22:54:45.068Z,1.30
2019-03-12T22:57:29.247Z,1.00
2019-03-12T23:00:38.020Z,1.23
2019-03-12T23:03:42.024Z,1.40
2019-03-12T23:06:45.716Z,1.50
2019-03-12T23:09:58.784Z,1.17
2019-03-12T23:12:55.100Z,1.50
2019-03-12T23:15:40.740Z,1.20
2019-03-12T23:18:25.707Z,1.17
2019-03-12T23:21:10.624Z,1.00
2019-03-12T23:23:55.282Z,1.07
2019-03-12T23:26:49.660Z,1.07
2019-03-12T23:29:35.196Z,1.07
2019-03-12T23:32:28.805Z,1.37
2019-03-12T23:35:13.302Z,1.10
2019-03-12T23:37:57.691Z,1.20
2019-03-12T23:40:42.872Z,1.20
2019-03-12T23:43:28.516Z,1.00
2019-03-12T23:46:21.925Z,1.00
2019-03-12T23:49:06.672Z,0.90
2019-03-12T23:51:51.456Z,0.93
2019-03-12T23:54:36.520Z,1.00
2019-03-12T23:57:21.448Z,1.00
